Time;durP1;ratioP1;P1;durP2;ratioP2;P2;SDS_P1;SDS_P2;PMS_P1;PMS_P2;Temp;Humidity;BMP_temperature;BMP_pressure;BME280_temperature;BME280_humidity;BME280_pressure;Samples;Min_cycle;Max_cycle;Signal;HPM_P1;HPM_P2
2021/12/06 00:00:51;;;;;;;67.60;38.80;;;;;;;8.42;100.00;98680.53;5030100;28;20197;-58
2021/12/06 00:03:22;;;;;;;68.63;37.57;;;;;;;8.44;100.00;98678.75;5030218;28;20208;-60
2021/12/06 00:05:49;;;;;;;68.80;39.90;;;;;;;8.35;100.00;98685.03;5030360;28;20197;-60
2021/12/06 00:08:17;;;;;;;74.07;37.87;;;;;;;8.31;100.00;98680.00;5030094;28;20201;-58
2021/12/06 00:10:49;;;;;;;63.73;36.13;;;;;;;8.46;100.00;98694.22;5030199;28;20636;-58
2021/12/06 00:13:19;;;;;;;68.33;37.17;;;;;;;8.47;100.00;98703.63;5029670;28;20328;-59
2021/12/06 00:15:48;;;;;;;74.90;38.80;;;;;;;8.54;100.00;98693.06;5030175;28;20643;-58
2021/12/06 00:18:15;;;;;;;66.57;35.97;;;;;;;8.60;100.00;98686.81;5030045;28;20263;-57
2021/12/06 00:20:42;;;;;;;66.37;36.20;;;;;;;8.56;100.00;98690.41;5030197;28;20261;-60
2021/12/06 00:23:09;;;;;;;67.27;38.70;;;;;;;8.62;100.00;98697.97;5030062;28;20204;-60
2021/12/06 00:25:38;;;;;;;68.30;37.73;;;;;;;8.69;100.00;98695.09;5030082;28;20645;-60
2021/12/06 00:28:05;;;;;;;66.43;37.07;;;;;;;8.76;100.00;98687.16;5029991;28;20656;-60
2021/12/06 00:30:32;;;;;;;69.40;37.60;;;;;;;8.75;100.00;98709.59;5030017;28;20197;-60
2021/12/06 00:33:00;;;;;;;66.23;36.57;;;;;;;8.80;100.00;98718.03;5030147;28;20201;-60
2021/12/06 00:35:29;;;;;;;61.47;35.93;;;;;;;8.84;100.00;98716.19;5030892;28;20591;-60
2021/12/06 00:37:58;;;;;;;64.30;36.47;;;;;;;8.84;100.00;98711.00;5033566;28;20220;-60
2021/12/06 00:40:27;;;;;;;64.57;36.67;;;;;;;8.92;100.00;98699.47;5033582;28;20252;-60
2021/12/06 00:42:56;;;;;;;72.20;37.37;;;;;;;8.88;100.00;98691.91;5033673;28;20190;-58
2021/12/06 00:45:23;;;;;;;68.70;37.40;;;;;;;8.84;100.00;98692.88;5033638;28;20207;-56
2021/12/06 00:47:50;;;;;;;68.07;36.60;;;;;;;8.82;100.00;98687.75;5033582;28;20287;-58
2021/12/06 00:50:18;;;;;;;65.37;37.57;;;;;;;8.81;100.00;98705.91;5033690;28;20687;-56
2021/12/06 00:52:46;;;;;;;70.50;37.53;;;;;;;8.94;100.00;98702.00;5033602;28;20585;-57
2021/12/06 00:55:14;;;;;;;66.23;37.40;;;;;;;8.79;100.00;98689.63;5033436;28;20308;-58
2021/12/06 00:57:41;;;;;;;63.53;35.17;;;;;;;8.72;100.00;98683.81;5033335;28;20221;-58
2021/12/06 01:00:16;;;;;;;69.53;36.93;;;;;;;8.85;100.00;98697.16;5033465;28;20291;-58
2021/12/06 01:02:43;;;;;;;65.77;35.23;;;;;;;8.80;100.00;98684.41;5033433;28;20575;-58
2021/12/06 01:05:11;;;;;;;67.33;36.07;;;;;;;8.67;100.00;98689.16;5033345;28;20209;-57
2021/12/06 01:07:38;;;;;;;71.70;35.60;;;;;;;8.59;100.00;98669.59;5033126;28;20200;-58
2021/12/06 01:10:07;;;;;;;72.37;36.83;;;;;;;8.51;100.00;98661.28;5033366;28;20205;-60
2021/12/06 01:12:34;;;;;;;68.97;37.37;;;;;;;8.32;100.00;98651.56;5033332;28;20239;-60
2021/12/06 01:15:01;;;;;;;67.73;35.80;;;;;;;8.43;100.00;98658.94;5033346;28;20243;-59
2021/12/06 01:17:29;;;;;;;70.50;35.63;;;;;;;8.29;100.00;98650.78;5033081;28;20529;-61
2021/12/06 01:19:56;;;;;;;72.87;35.40;;;;;;;8.29;100.00;98663.69;5032926;28;20725;-61
2021/12/06 01:22:28;;;;;;;73.23;36.63;;;;;;;8.35;100.00;98661.78;5032975;28;20197;-59
2021/12/06 01:24:59;;;;;;;71.57;35.37;;;;;;;8.40;100.00;98658.19;5033104;28;20572;-59
2021/12/06 01:27:48;;;;;;;71.67;35.20;;;;;;;8.45;100.00;98653.72;5032985;28;20193;-57
2021/12/06 01:41:24;;;;;;;75.67;35.30;;;;;;;8.44;100.00;98663.22;5032765;28;20220;-59
2021/12/06 01:44:13;;;;;;;77.17;35.30;;;;;;;8.44;100.00;98644.28;5032788;28;20215;-59
2021/12/06 01:46:44;;;;;;;73.97;35.13;;;;;;;8.31;100.00;98642.13;5032324;28;20673;-56
2021/12/06 01:49:13;;;;;;;80.60;36.07;;;;;;;8.26;100.00;98637.94;5032876;28;20193;-57
2021/12/06 01:51:41;;;;;;;75.43;36.20;;;;;;;8.30;100.00;98636.97;5032732;28;20193;-58
2021/12/06 01:54:09;;;;;;;80.07;35.47;;;;;;;8.25;100.00;98623.31;5032716;28;20284;-57
2021/12/06 01:56:36;;;;;;;81.67;36.47;;;;;;;8.25;100.00;98631.09;5032473;28;20212;-57
2021/12/06 01:59:05;;;;;;;78.30;36.23;;;;;;;8.33;100.00;98626.56;5032263;28;20236;-59
2021/12/06 02:01:32;;;;;;;91.87;38.73;;;;;;;8.32;100.00;98627.44;5032254;28;20194;-59
2021/12/06 02:03:59;;;;;;;80.80;37.33;;;;;;;8.33;100.00;98636.91;5032550;28;20283;-57
2021/12/06 02:06:28;;;;;;;89.83;38.27;;;;;;;8.30;100.00;98635.22;5032368;28;20200;-56
2021/12/06 02:08:56;;;;;;;82.07;36.33;;;;;;;8.35;100.00;98624.75;5032077;28;20200;-56
2021/12/06 02:11:25;;;;;;;91.63;38.67;;;;;;;8.35;100.00;98629.94;5032064;28;20197;-57
2021/12/06 02:14:00;;;;;;;94.67;37.27;;;;;;;8.51;100.00;98631.09;5031879;28;20248;-57
2021/12/06 02:16:35;;;;;;;88.53;36.40;;;;;;;8.45;100.00;98620.97;5032051;28;20211;-57
2021/12/06 02:19:05;;;;;;;85.33;38.47;;;;;;;8.47;100.00;98629.47;5031978;28;20247;-58
2021/12/06 02:21:37;;;;;;;92.90;36.37;;;;;;;8.51;100.00;98622.47;5031825;28;20284;-60
2021/12/06 02:24:09;;;;;;;83.70;35.53;;;;;;;8.38;100.00;98591.88;5031787;28;20198;-56
2021/12/06 02:26:36;;;;;;;88.20;33.93;;;;;;;8.49;100.00;98599.25;5031810;28;20256;-57
2021/12/06 02:29:03;;;;;;;95.53;35.60;;;;;;;8.44;100.00;98615.84;5031910;28;20692;-57
2021/12/06 02:31:31;;;;;;;87.73;33.70;;;;;;;8.47;100.00;98623.47;5031736;28;20205;-59
2021/12/06 02:33:58;;;;;;;98.13;36.03;;;;;;;8.52;100.00;98640.53;5031746;28;20255;-57
2021/12/06 02:36:26;;;;;;;83.97;32.37;;;;;;;8.61;100.00;98624.69;5031571;28;20287;-57
2021/12/06 02:38:55;;;;;;;86.07;33.53;;;;;;;8.55;100.00;98601.63;5031438;28;20233;-60
2021/12/06 02:41:22;;;;;;;81.53;32.10;;;;;;;8.47;100.00;98593.28;5031408;28;20677;-60
2021/12/06 02:43:50;;;;;;;84.50;34.70;;;;;;;8.41;100.00;98600.44;5031386;28;20201;-59
2021/12/06 02:46:19;;;;;;;84.37;31.80;;;;;;;8.37;100.00;98591.91;5031268;28;20207;-59
2021/12/06 02:48:46;;;;;;;84.87;32.07;;;;;;;8.41;100.00;98601.28;5031396;28;20193;-59
2021/12/06 02:51:14;;;;;;;82.93;32.07;;;;;;;8.37;100.00;98597.09;5031325;28;20197;-60
2021/12/06 02:53:41;;;;;;;89.63;32.77;;;;;;;8.43;100.00;98601.22;5031347;28;20207;-57
2021/12/06 02:56:28;;;;;;;84.77;32.47;;;;;;;8.39;100.00;98605.63;5031621;28;20691;-57
2021/12/06 02:58:58;;;;;;;83.57;32.00;;;;;;;8.37;100.00;98610.00;5030466;28;20659;-58
2021/12/06 03:01:31;;;;;;;85.93;32.13;;;;;;;8.46;100.00;98608.88;5031119;28;20202;-57
2021/12/06 03:03:59;;;;;;;85.97;32.63;;;;;;;8.45;100.00;98595.09;5031122;28;20197;-57
2021/12/06 03:06:28;;;;;;;91.03;33.87;;;;;;;8.53;100.00;98593.09;5031220;28;20219;-58
2021/12/06 03:09:04;;;;;;;83.53;30.27;;;;;;;8.50;100.00;98597.50;5031091;28;20638;-57
2021/12/06 03:11:35;;;;;;;84.33;31.67;;;;;;;8.42;100.00;98610.72;5031074;28;20215;-57
2021/12/06 03:14:05;;;;;;;94.33;32.40;;;;;;;8.30;100.00;98580.09;5030916;28;20201;-57
2021/12/06 03:16:32;;;;;;;81.37;30.33;;;;;;;8.53;100.00;98613.78;5031018;28;20205;-57
2021/12/06 03:18:59;;;;;;;78.40;30.90;;;;;;;8.57;100.00;98612.78;5030611;28;20239;-58
2021/12/06 03:21:26;;;;;;;76.47;29.17;;;;;;;8.54;100.00;98619.78;5030772;28;20207;-57
2021/12/06 03:23:55;;;;;;;75.70;29.13;;;;;;;8.48;100.00;98613.06;5030698;28;20193;-56
2021/12/06 03:26:22;;;;;;;79.50;29.53;;;;;;;8.62;100.00;98613.44;5030678;28;20201;-57
2021/12/06 03:28:51;;;;;;;83.87;31.17;;;;;;;8.69;100.00;98599.38;5030645;28;20588;-57
2021/12/06 03:31:20;;;;;;;75.07;29.90;;;;;;;8.77;100.00;98593.97;5030723;28;20201;-57
2021/12/06 03:33:49;;;;;;;76.07;30.07;;;;;;;8.80;100.00;98600.78;5030679;28;20279;-57
2021/12/06 03:36:18;;;;;;;77.33;31.17;;;;;;;8.78;100.00;98607.75;5030408;28;20288;-59
2021/12/06 03:38:46;;;;;;;78.80;30.43;;;;;;;8.82;100.00;98601.53;5030654;28;20220;-59
2021/12/06 03:41:17;;;;;;;73.93;30.30;;;;;;;8.83;100.00;98604.06;5030618;28;20288;-57
2021/12/06 03:43:44;;;;;;;80.30;29.60;;;;;;;8.78;100.00;98587.03;5030490;28;20280;-59
2021/12/06 03:46:16;;;;;;;71.57;28.97;;;;;;;8.78;100.00;98594.81;5030693;28;20687;-59
2021/12/06 03:48:43;;;;;;;74.33;29.30;;;;;;;8.70;100.00;98613.16;5030502;28;20198;-57
2021/12/06 03:51:10;;;;;;;69.57;29.83;;;;;;;8.82;100.00;98617.06;5030488;28;20798;-59
2021/12/06 03:53:37;;;;;;;74.17;30.20;;;;;;;8.75;100.00;98629.38;5030389;28;20847;-60
2021/12/06 03:56:05;;;;;;;92.10;34.00;;;;;;;8.64;100.00;98626.31;5030303;28;20197;-58
2021/12/06 03:58:33;;;;;;;84.33;33.97;;;;;;;8.57;100.00;98607.59;5030126;28;20221;-60
2021/12/06 04:01:02;;;;;;;87.47;35.03;;;;;;;8.47;100.00;98587.25;5030217;28;20612;-60
2021/12/06 04:03:34;;;;;;;87.83;34.27;;;;;;;8.46;100.00;98596.78;5030126;28;20194;-60
2021/12/06 04:06:03;;;;;;;80.57;33.10;;;;;;;8.63;100.00;98603.94;5029910;28;20197;-58
2021/12/06 04:08:30;;;;;;;80.27;32.07;;;;;;;8.60;100.00;98599.72;5023597;28;20236;-60
2021/12/06 04:10:57;;;;;;;84.97;32.43;;;;;;;8.59;100.00;98610.97;5012545;28;20685;-57
2021/12/06 04:13:24;;;;;;;77.97;30.30;;;;;;;8.57;100.00;98607.59;5028525;28;20247;-57
2021/12/06 04:15:51;;;;;;;83.03;30.80;;;;;;;8.55;100.00;98617.16;5033806;28;20224;-60
2021/12/06 04:18:18;;;;;;;77.10;30.57;;;;;;;8.49;100.00;98613.91;5032809;28;20228;-59
2021/12/06 04:20:47;;;;;;;81.57;32.50;;;;;;;8.49;100.00;98601.00;5033408;28;20593;-58
2021/12/06 04:23:15;;;;;;;85.27;32.93;;;;;;;8.55;100.00;98603.38;5030904;28;20260;-59
2021/12/06 04:25:42;;;;;;;95.67;37.07;;;;;;;8.59;100.00;98598.03;5032175;28;20283;-59
2021/12/06 04:28:14;;;;;;;87.77;33.77;;;;;;;8.65;100.00;98596.97;5035327;28;20221;-56
2021/12/06 04:30:41;;;;;;;73.77;31.13;;;;;;;8.64;100.00;98590.97;5030533;28;20252;-56
2021/12/06 04:33:08;;;;;;;88.03;33.90;;;;;;;8.76;100.00;98594.00;5030436;28;20216;-57
2021/12/06 04:35:37;;;;;;;80.07;32.97;;;;;;;8.79;100.00;98594.75;5028672;28;20229;-57
2021/12/06 04:38:07;;;;;;;76.20;32.07;;;;;;;8.77;100.00;98613.81;5029837;28;20247;-57
2021/12/06 04:40:34;;;;;;;79.40;31.30;;;;;;;8.81;100.00;98605.00;5023689;28;20229;-60
2021/12/06 04:43:01;;;;;;;77.67;32.17;;;;;;;8.82;100.00;98598.94;5028884;28;20219;-60
2021/12/06 04:45:29;;;;;;;75.90;32.43;;;;;;;8.89;100.00;98613.38;5031062;28;20232;-60
2021/12/06 04:47:56;;;;;;;77.50;32.70;;;;;;;8.86;100.00;98596.19;5029183;28;20723;-60
2021/12/06 04:50:26;;;;;;;76.03;32.27;;;;;;;8.89;100.00;98610.78;5039599;28;20229;-60
2021/12/06 04:52:54;;;;;;;82.47;32.77;;;;;;;8.84;100.00;98602.31;5039766;28;20220;-59
2021/12/06 04:55:29;;;;;;;83.33;33.00;;;;;;;8.86;100.00;98616.91;5042791;28;20622;-59
2021/12/06 04:57:57;;;;;;;85.97;32.87;;;;;;;8.88;100.00;98619.44;5043481;28;20650;-57
2021/12/06 05:00:32;;;;;;;73.87;30.83;;;;;;;8.91;100.00;98611.56;5036449;28;20676;-57
2021/12/06 05:03:01;;;;;;;86.97;32.53;;;;;;;8.70;100.00;98577.78;5045229;28;20818;-57
2021/12/06 05:05:32;;;;;;;85.43;34.73;;;;;;;8.84;100.00;98620.44;5042394;28;20224;-56
2021/12/06 05:08:02;;;;;;;92.40;35.10;;;;;;;8.54;100.00;98576.69;5042566;28;20232;-57
2021/12/06 05:10:31;;;;;;;95.90;35.10;;;;;;;8.69;100.00;98609.72;5032688;28;20221;-56
2021/12/06 05:12:58;;;;;;;109.47;37.50;;;;;;;8.60;100.00;98610.06;5051421;28;20236;-58
2021/12/06 05:15:26;;;;;;;103.80;39.07;;;;;;;8.65;100.00;98600.41;5038937;28;20220;-60
2021/12/06 05:17:53;;;;;;;94.87;36.83;;;;;;;8.64;100.00;98610.81;5041053;28;20290;-56
2021/12/06 05:20:20;;;;;;;110.43;37.27;;;;;;;8.54;100.00;98620.63;5037789;28;20645;-59
2021/12/06 05:22:49;;;;;;;101.00;37.47;;;;;;;8.42;100.00;98602.97;5030381;28;20335;-57
2021/12/06 05:25:16;;;;;;;111.73;40.20;;;;;;;8.36;100.00;98621.25;5032084;28;20251;-59
2021/12/06 05:27:46;;;;;;;114.20;43.57;;;;;;;8.18;100.00;98603.75;5031666;28;20221;-58
2021/12/06 05:30:14;;;;;;;109.23;43.10;;;;;;;8.32;100.00;98614.53;5031608;28;20255;-59
2021/12/06 05:32:42;;;;;;;118.33;43.07;;;;;;;8.37;100.00;98615.19;5043411;28;20617;-60
2021/12/06 05:35:10;;;;;;;140.40;45.07;;;;;;;8.48;100.00;98625.16;5052092;28;20255;-62
2021/12/06 05:37:40;;;;;;;139.37;45.63;;;;;;;8.38;100.00;98607.38;5051958;28;20247;-62
2021/12/06 05:40:10;;;;;;;114.97;40.97;;;;;;;8.43;100.00;98625.34;5039736;28;20229;-61
2021/12/06 05:42:37;;;;;;;125.77;44.20;;;;;;;8.34;100.00;98625.66;5027536;28;20228;-62
2021/12/06 05:45:08;;;;;;;110.30;42.37;;;;;;;8.53;100.00;98633.63;5039218;28;20227;-61
2021/12/06 05:47:35;;;;;;;136.63;42.33;;;;;;;8.55;100.00;98642.19;5040088;28;20229;-62
2021/12/06 05:50:02;;;;;;;115.33;41.80;;;;;;;8.43;100.00;98606.38;5043966;28;20217;-63
2021/12/06 05:52:29;;;;;;;110.73;39.83;;;;;;;8.65;100.00;98623.69;5043952;28;20235;-62
2021/12/06 05:54:58;;;;;;;95.87;37.80;;;;;;;8.71;100.00;98623.47;5042176;28;20231;-60
2021/12/06 05:57:25;;;;;;;104.57;38.93;;;;;;;8.63;100.00;98630.66;5051676;28;20710;-60
2021/12/06 05:59:52;;;;;;;106.97;38.40;;;;;;;8.55;100.00;98627.50;5051313;28;20323;-59
2021/12/06 06:02:22;;;;;;;104.77;39.97;;;;;;;8.63;100.00;98633.25;5038344;28;20237;-62
2021/12/06 06:04:49;;;;;;;95.43;36.80;;;;;;;8.73;100.00;98638.94;5031514;28;20612;-61
2021/12/06 06:07:16;;;;;;;94.63;38.43;;;;;;;8.67;100.00;98634.84;5031533;28;20221;-60
2021/12/06 06:09:44;;;;;;;99.23;40.17;;;;;;;8.55;100.00;98621.47;5031350;28;20668;-62
2021/12/06 06:12:11;;;;;;;113.67;43.80;;;;;;;8.64;100.00;98624.59;5031657;28;20613;-62
2021/12/06 06:14:38;;;;;;;114.37;43.40;;;;;;;8.56;100.00;98628.34;5031122;28;20316;-62
2021/12/06 06:17:10;;;;;;;136.10;44.43;;;;;;;8.63;100.00;98630.66;5031535;28;20241;-62
2021/12/06 06:19:41;;;;;;;129.13;43.53;;;;;;;8.63;100.00;98634.97;5031393;28;20261;-62
2021/12/06 06:22:08;;;;;;;126.37;43.43;;;;;;;8.56;100.00;98636.94;5031230;28;20286;-61
2021/12/06 06:24:35;;;;;;;140.13;45.03;;;;;;;8.63;100.00;98642.75;5039096;28;20228;-61
2021/12/06 06:27:02;;;;;;;134.03;44.93;;;;;;;8.68;100.00;98662.41;5051319;28;20763;-60
2021/12/06 06:29:29;;;;;;;132.50;44.47;;;;;;;8.67;100.00;98655.53;5050511;28;20330;-60
2021/12/06 06:31:56;;;;;;;153.53;49.83;;;;;;;8.72;100.00;98650.19;5051218;28;20244;-60
2021/12/06 06:34:24;;;;;;;144.13;47.70;;;;;;;8.75;100.00;98642.31;5050040;28;20307;-60
2021/12/06 06:36:52;;;;;;;144.40;46.50;;;;;;;8.87;100.00;98654.81;5051140;28;20221;-60
2021/12/06 06:39:21;;;;;;;153.23;51.70;;;;;;;8.91;100.00;98653.81;5050658;28;20260;-60
2021/12/06 06:41:48;;;;;;;134.90;48.70;;;;;;;8.79;100.00;98640.47;5051240;28;20274;-61
2021/12/06 06:44:17;;;;;;;147.93;50.53;;;;;;;8.78;100.00;98628.44;5045360;28;20608;-60
2021/12/06 06:46:45;;;;;;;138.67;45.67;;;;;;;8.88;100.00;98640.13;5029644;28;20223;-59
2021/12/06 06:49:12;;;;;;;134.73;47.60;;;;;;;8.93;100.00;98635.63;5028926;28;20223;-59
2021/12/06 06:51:40;;;;;;;148.80;49.03;;;;;;;8.92;100.00;98636.53;5029461;28;20237;-59
2021/12/06 06:54:09;;;;;;;141.27;47.50;;;;;;;8.98;100.00;98637.16;5030591;28;20246;-59
2021/12/06 06:56:36;;;;;;;118.90;46.93;;;;;;;8.95;100.00;98641.59;5029790;28;20612;-59
2021/12/06 06:59:04;;;;;;;117.73;46.67;;;;;;;9.03;100.00;98643.00;5029024;28;20343;-59
2021/12/06 07:01:31;;;;;;;143.43;49.97;;;;;;;8.94;100.00;98640.75;5027106;28;20213;-59
2021/12/06 07:03:58;;;;;;;129.50;48.97;;;;;;;8.98;100.00;98641.50;5028707;28;20692;-60
2021/12/06 07:06:28;;;;;;;127.23;48.40;;;;;;;9.01;100.00;98631.03;5030236;28;20235;-61
2021/12/06 07:08:56;;;;;;;123.53;47.23;;;;;;;9.01;100.00;98633.63;5029230;28;20229;-61
2021/12/06 07:11:26;;;;;;;126.90;50.80;;;;;;;9.04;100.00;98641.25;5030669;28;20719;-59
2021/12/06 07:13:53;;;;;;;123.13;52.43;;;;;;;9.05;100.00;98640.38;5028734;28;20225;-60
2021/12/06 07:16:20;;;;;;;119.27;48.60;;;;;;;8.92;100.00;98627.00;5029186;28;20618;-60
2021/12/06 07:18:48;;;;;;;126.87;48.60;;;;;;;8.85;100.00;98635.91;5028794;28;20217;-61
2021/12/06 07:21:15;;;;;;;111.67;46.27;;;;;;;8.95;100.00;98629.50;5029432;28;20248;-60
2021/12/06 07:23:43;;;;;;;112.00;44.80;;;;;;;8.95;100.00;98618.31;5030450;28;20221;-61
2021/12/06 07:26:12;;;;;;;110.07;43.80;;;;;;;8.96;100.00;98620.84;5050235;28;20256;-61
2021/12/06 07:28:42;;;;;;;108.93;42.60;;;;;;;9.09;100.00;98622.09;5049589;28;20216;-62
2021/12/06 07:31:12;;;;;;;210.23;45.63;;;;;;;9.09;100.00;98624.69;5049936;28;20221;-61
2021/12/06 07:33:40;;;;;;;112.43;40.73;;;;;;;9.23;100.00;98642.28;5050248;28;20603;-61
2021/12/06 07:36:07;;;;;;;100.03;38.33;;;;;;;9.21;100.00;98633.72;5050337;28;20667;-61
2021/12/06 07:38:35;;;;;;;99.20;40.13;;;;;;;9.25;100.00;98632.72;5049845;28;20228;-60
2021/12/06 07:41:02;;;;;;;119.30;41.00;;;;;;;9.37;100.00;98629.66;5049497;28;20232;-61
2021/12/06 07:43:29;;;;;;;99.90;40.13;;;;;;;9.25;100.00;98631.88;5049166;28;20307;-63
2021/12/06 07:45:58;;;;;;;176.53;44.27;;;;;;;9.29;100.00;98630.84;5049932;28;20717;-61
2021/12/06 07:48:25;;;;;;;96.17;41.07;;;;;;;9.14;100.00;98584.84;5049824;28;20228;-60
2021/12/06 07:50:52;;;;;;;126.93;41.20;;;;;;;9.46;100.00;98634.50;5049547;28;20220;-61
2021/12/06 07:53:19;;;;;;;112.03;41.33;;;;;;;9.39;100.00;98608.88;5049855;28;20232;-61
2021/12/06 07:55:48;;;;;;;100.30;39.77;;;;;;;9.44;100.00;98627.69;5031983;28;20738;-61
2021/12/06 07:58:15;;;;;;;96.60;40.53;;;;;;;9.45;100.00;98606.91;5029138;28;20231;-61
2021/12/06 08:00:45;;;;;;;98.57;40.97;;;;;;;9.66;100.00;98609.56;5029527;28;20232;-61
2021/12/06 08:03:15;;;;;;;99.90;40.60;;;;;;;9.80;100.00;98595.16;5029921;28;20236;-61
2021/12/06 08:05:45;;;;;;;303.93;53.13;;;;;;;10.01;100.00;98613.31;5029409;28;20225;-61
2021/12/06 08:08:16;;;;;;;159.87;44.63;;;;;;;9.99;100.00;98592.66;5029800;28;20251;-61
2021/12/06 08:10:46;;;;;;;110.53;41.73;;;;;;;10.26;100.00;98626.16;5029387;28;20251;-59
2021/12/06 08:13:15;;;;;;;94.37;42.77;;;;;;;10.42;100.00;98619.41;5029292;28;20247;-59
2021/12/06 08:15:43;;;;;;;132.93;46.40;;;;;;;10.22;100.00;98619.41;5028323;28;20227;-59
2021/12/06 08:18:10;;;;;;;138.43;51.57;;;;;;;10.39;100.00;98628.16;5029698;28;20692;-60
2021/12/06 08:20:41;;;;;;;105.13;44.10;;;;;;;10.33;100.00;98612.03;5029173;28;20252;-60
2021/12/06 08:23:08;;;;;;;129.73;52.07;;;;;;;10.28;100.00;98622.56;5029743;28;20267;-60
2021/12/06 08:25:36;;;;;;;114.37;46.53;;;;;;;10.27;100.00;98609.69;5045350;28;20233;-60
2021/12/06 08:28:03;;;;;;;108.13;45.17;;;;;;;10.28;100.00;98619.13;5049140;28;20224;-60
2021/12/06 08:30:31;;;;;;;106.80;43.63;;;;;;;10.30;100.00;98612.13;5049373;28;20307;-61
2021/12/06 08:32:59;;;;;;;111.73;46.90;;;;;;;10.47;100.00;98609.69;5049646;28;20222;-60
2021/12/06 08:35:28;;;;;;;93.70;41.33;;;;;;;10.51;100.00;98619.84;5049539;28;20675;-60
2021/12/06 08:37:58;;;;;;;106.50;43.80;;;;;;;10.61;100.00;98602.13;5049895;28;20607;-61
2021/12/06 08:40:26;;;;;;;94.33;41.63;;;;;;;10.41;100.00;98613.38;5049821;28;20244;-60
2021/12/06 08:42:53;;;;;;;252.87;48.43;;;;;;;10.46;100.00;98611.44;5049149;28;20307;-62
2021/12/06 08:45:20;;;;;;;303.43;52.07;;;;;;;10.35;100.00;98616.25;5049294;28;20227;-60
2021/12/06 08:47:48;;;;;;;150.33;44.80;;;;;;;10.38;100.00;98630.84;5049410;28;20216;-60
2021/12/06 08:50:19;;;;;;;167.73;46.00;;;;;;;10.38;100.00;98607.50;5049249;28;20224;-61
2021/12/06 08:52:46;;;;;;;114.77;43.30;;;;;;;10.21;100.00;98604.75;5049312;28;20729;-61
2021/12/06 08:55:16;;;;;;;150.07;43.47;;;;;;;10.31;100.00;98613.84;5036308;28;20225;-61
2021/12/06 08:57:44;;;;;;;97.13;39.77;;;;;;;10.34;100.00;98611.13;5031798;28;20214;-60
2021/12/06 09:00:16;;;;;;;248.60;49.63;;;;;;;10.24;100.00;98600.28;5032911;28;20236;-60
2021/12/06 09:02:43;;;;;;;153.67;42.53;;;;;;;10.35;100.00;98608.47;5032846;28;20704;-60
2021/12/06 09:05:11;;;;;;;161.83;42.73;;;;;;;10.56;100.00;98614.47;5032827;28;20223;-61
2021/12/06 09:07:38;;;;;;;128.20;40.90;;;;;;;10.60;100.00;98605.66;5032994;28;20224;-60
2021/12/06 09:10:09;;;;;;;129.07;42.00;;;;;;;10.69;100.00;98589.69;5032869;28;20308;-61
2021/12/06 09:12:39;;;;;;;111.57;41.73;;;;;;;10.55;100.00;98581.66;5032224;28;20239;-61
2021/12/06 09:15:11;;;;;;;103.87;42.00;;;;;;;10.61;100.00;98571.00;5032162;28;20231;-60
2021/12/06 09:17:39;;;;;;;118.97;43.20;;;;;;;10.52;100.00;98571.41;5032720;28;20227;-63
2021/12/06 09:20:08;;;;;;;118.43;42.03;;;;;;;10.54;100.00;98577.38;5032405;28;20233;-61
2021/12/06 09:22:35;;;;;;;121.23;45.50;;;;;;;10.57;100.00;98581.59;5032609;28;20304;-60
2021/12/06 09:25:04;;;;;;;120.23;43.30;;;;;;;10.60;100.00;98586.66;5041251;28;20686;-61
2021/12/06 09:27:32;;;;;;;114.60;40.97;;;;;;;10.51;100.00;98590.47;5032031;28;20712;-60
2021/12/06 09:30:00;;;;;;;109.63;42.27;;;;;;;10.49;100.00;98581.94;5032537;28;20653;-61
2021/12/06 09:32:27;;;;;;;152.43;47.53;;;;;;;10.50;100.00;98574.06;5032407;28;20232;-61
2021/12/06 09:34:58;;;;;;;156.67;49.10;;;;;;;10.54;100.00;98573.03;5032414;28;20229;-60
2021/12/06 09:37:25;;;;;;;115.17;45.97;;;;;;;10.45;100.00;98555.28;5032252;28;20226;-60
2021/12/06 09:39:52;;;;;;;118.40;47.43;;;;;;;10.59;100.00;98546.06;5032049;28;20239;-60
2021/12/06 09:42:21;;;;;;;130.07;45.53;;;;;;;10.62;100.00;98536.34;5031357;28;20667;-60
2021/12/06 09:44:49;;;;;;;145.57;45.23;;;;;;;10.52;100.00;98535.09;5032305;28;20256;-59
2021/12/06 09:47:18;;;;;;;130.03;45.97;;;;;;;10.19;100.00;98535.66;5032144;28;20225;-60
2021/12/06 09:49:45;;;;;;;105.83;41.40;;;;;;;10.25;100.00;98531.13;5032108;28;20228;-60
2021/12/06 09:52:14;;;;;;;112.50;41.63;;;;;;;10.23;100.00;98526.00;5031697;28;20205;-60
2021/12/06 09:54:41;;;;;;;97.73;40.47;;;;;;;10.20;100.00;98526.13;5031818;28;20292;-59
2021/12/06 09:57:10;;;;;;;102.17;38.30;;;;;;;10.37;100.00;98548.75;5032301;28;20288;-60
2021/12/06 09:59:39;;;;;;;100.70;38.90;;;;;;;10.36;100.00;98532.34;5032151;28;20207;-61
2021/12/06 10:02:10;;;;;;;96.00;38.63;;;;;;;10.39;100.00;98500.22;5032079;28;20292;-61
2021/12/06 10:04:44;;;;;;;90.47;37.67;;;;;;;10.74;100.00;98499.47;5031974;28;20560;-60
2021/12/06 10:07:12;;;;;;;86.93;37.07;;;;;;;10.83;100.00;98500.84;5032011;28;20204;-60
2021/12/06 10:09:42;;;;;;;86.23;34.40;;;;;;;10.82;100.00;98493.94;5031987;28;20669;-61
2021/12/06 10:12:10;;;;;;;85.47;35.30;;;;;;;10.83;100.00;98503.44;5031866;28;20240;-60
2021/12/06 10:14:38;;;;;;;88.30;37.70;;;;;;;10.75;100.00;98498.56;5031612;28;20208;-60
2021/12/06 10:17:05;;;;;;;85.63;35.77;;;;;;;10.87;100.00;98476.41;5031879;28;20280;-60
2021/12/06 10:19:33;;;;;;;88.37;35.20;;;;;;;10.89;100.00;98475.41;5032207;28;20289;-61
2021/12/06 10:22:01;;;;;;;83.67;34.07;;;;;;;10.70;100.00;98472.00;5031501;28;20308;-59
2021/12/06 10:24:30;;;;;;;73.17;31.03;;;;;;;10.66;100.00;98479.97;5031694;28;20587;-62
2021/12/06 10:27:08;;;;;;;74.43;33.47;;;;;;;10.63;100.00;98467.97;5031478;28;20198;-63
2021/12/06 10:29:39;;;;;;;71.77;32.63;;;;;;;10.71;100.00;98471.09;5031247;28;20201;-60
2021/12/06 10:32:13;;;;;;;76.57;33.33;;;;;;;10.87;100.00;98464.25;5031557;28;20284;-61
2021/12/06 10:34:45;;;;;;;88.47;33.83;;;;;;;11.03;100.00;98455.75;5031025;28;20219;-61
2021/12/06 10:37:30;;;;;;;71.30;34.50;;;;;;;11.17;100.00;98454.16;5031188;28;20205;-60
2021/12/06 10:39:58;;;;;;;75.20;33.83;;;;;;;11.27;100.00;98452.00;5031127;28;20197;-60
2021/12/06 10:42:34;;;;;;;139.90;35.87;;;;;;;11.36;100.00;98469.72;5031162;28;20197;-61
2021/12/06 10:45:05;;;;;;;84.53;33.70;;;;;;;11.50;100.00;98451.72;5031021;28;20215;-60
2021/12/06 10:47:32;;;;;;;82.67;34.63;;;;;;;11.50;100.00;98454.31;5031268;28;20318;-60
2021/12/06 10:50:08;;;;;;;107.63;37.10;;;;;;;11.45;100.00;98466.66;5031210;28;20289;-62
2021/12/06 10:52:47;;;;;;;81.67;33.47;;;;;;;11.50;100.00;98456.06;5031485;28;20235;-60
2021/12/06 10:55:14;;;;;;;208.97;41.27;;;;;;;11.61;100.00;98451.19;5030815;28;20292;-60
2021/12/06 10:57:49;;;;;;;104.43;36.80;;;;;;;11.80;100.00;98453.72;5030716;28;20284;-61
2021/12/06 11:00:45;;;;;;;79.90;35.07;;;;;;;11.71;100.00;98421.19;5030864;28;20323;-61
2021/12/06 11:03:25;;;;;;;74.50;34.53;;;;;;;11.65;100.00;98434.50;4996526;28;20656;-60
2021/12/06 11:05:56;;;;;;;71.63;34.23;;;;;;;11.54;100.00;98434.19;5030745;28;20212;-60
2021/12/06 11:08:25;;;;;;;71.83;33.70;;;;;;;11.44;100.00;98435.56;5030705;28;20288;-62
2021/12/06 11:10:55;;;;;;;108.07;36.73;;;;;;;11.54;100.00;98418.59;5031176;28;20219;-60
2021/12/06 11:13:25;;;;;;;92.80;36.47;;;;;;;11.61;100.00;98407.84;5030610;28;20237;-62
2021/12/06 11:16:05;;;;;;;147.47;40.20;;;;;;;11.61;100.00;98407.00;5030629;28;20695;-60
2021/12/06 11:18:36;;;;;;;106.33;36.83;;;;;;;11.66;100.00;98412.78;5030439;28;20201;-60
2021/12/06 11:21:05;;;;;;;99.83;36.30;;;;;;;11.58;100.00;98420.97;5030435;28;20720;-60
2021/12/06 11:23:33;;;;;;;83.27;34.77;;;;;;;11.55;100.00;98412.47;5030702;28;20205;-61
2021/12/06 11:26:03;;;;;;;84.67;34.63;;;;;;;11.58;100.00;98409.75;5030701;28;20198;-61
2021/12/06 11:28:33;;;;;;;85.63;33.97;;;;;;;11.55;100.00;98392.53;5030419;28;20205;-61
2021/12/06 11:31:02;;;;;;;83.97;34.10;;;;;;;11.84;100.00;98395.47;5030633;28;20204;-61